Airfield :
LOGIN :

Register | Disclaimer

   EN    FR    IT 

 










Legend :    VFR   Marginal VFR   IFR   Intensive IFR   Very Intensive IFR
Visi :
Ceiling :
>= 8 km
>= 3000ft
5 to 8 km
1000 to 3000 ft
1500m to 5 km
500 to 1000 ft
800 to 1500m
200 to 500 ft
< 800m
< 200 ft
Symbols :   Thunderstorms  Fog  Heavy snow  Heavy precipitations  Wind > 20 kt
SIGMETs :     Misc.  Thunderstorms  Icing  Turbulence  Mountain Waves  Volcanic Ashes






- Airport Elevation : 425 ft
- IATA code : DTM


EDLW - Dortmund

CURRENT METAR :
  • 200220Z AUTO 25009KT 220V280 9999 // FEW019/// BKN032/// BKN038/// 04/02 Q1022

EXPIRED METARs :
  • 200150Z AUTO 25007KT 220V280 9999 // BKN048/// BKN054/// BKN068/// 04/02 Q1022
  • 200120Z AUTO 25008KT 9999 // FEW031/// BKN052/// BKN072/// 04/03 Q1022
  • 200050Z AUTO 25007KT 9999 // FEW029/// SCT054/// 03/02 Q1022
  • 200020Z AUTO 25007KT 9999 // FEW027/// 04/02 Q1022
  • 192350Z AUTO 26006KT 230V300 9999 // FEW025/// 03/02 Q1022

TAF AMD TAF EDLW
Valid from the 19 at 19:00 until the 20 at 18:00 UTC


191955Z 1919/2018 23012KT 6000 BKN008
TEMPO 1919/1924 3500 -RADZ
PROB30
TEMPO 1919/1924 2500 RADZ BKN004
BECMG 1920/1923 29010KT
BECMG 1923/2001 BKN015
PROB40
TEMPO 2004/2018 3500 -SHRASN BKN008TCU
PROB30
TEMPO 2011/2015 31015G25KT



MET'MAP, your aeronautical weather chart ! - Copyright ORBIFLY December 2007 - Disclaimer

ORBIFLY MET'MAP TEAM :

Programming & Development : Alexandra Zaïnal
Concept & original design : Baudouin d'Aumeries
Assistance for programming : Marc-Olivier Méhu
Technical & hardware support : Manuel Goepfert

Contact : metmap@orbifly.com




SOURCES & CREDITS :

   NOAA